KJYG

St James Municipal Airport

St James, Minnesota, USA
METAR KJYG 201515Z AUTO 29011KT 10SM SCT011 OVC037 M11/M12 A2995 RMK AO2
Observed Flight Rules
Feb-20 @ 15:15 UTC (5 hours ago) Visual Flight Rules
Wind Visibility Clouds
290° at 11 knots 10 miles
  • Scattered at 1,100' AGL
  • Overcast at 3,700' AGL
Temperatures Readings
Current -11°C / 12°F
Dewpoint -12°C / 10°F
Humidity 92%
Altimeter 29.95" Hg
Pressure 1014 hPa
Elevation 325
METAR KJYG 201515Z AUTO 29011KT 10SM SCT011 OVC037 M11/M12 A2995 RMK AO2
Observed Flight Rules
Feb-20 @ 15:15 UTC
(5 hours ago)
VFR
Wind Visibility
290° at 11 knots 10 miles
Clouds
  • Scattered at 1,100' AGL
  • Overcast at 3,700' AGL
Temperature Dewpoint
-11°C / 12°F -12°C / 10°F
Humidity Altimeter Pressure
92% 29.95" Hg 1014 hPa